createdAt,value
2018-11-28T00:00:05.992Z,1013.90
2018-11-28T00:01:05.977Z,1013.87
2018-11-28T00:02:05.924Z,1013.89
2018-11-28T00:03:05.988Z,1013.87
2018-11-28T00:04:05.856Z,1013.92
2018-11-28T00:05:05.895Z,1013.85
2018-11-28T00:06:05.794Z,1013.89
2018-11-28T00:07:05.797Z,1013.90
2018-11-28T00:08:05.739Z,1013.86
2018-11-28T00:09:05.842Z,1013.90
2018-11-28T00:10:05.671Z,1013.91
2018-11-28T00:11:05.739Z,1013.86
2018-11-28T00:12:05.611Z,1013.80
2018-11-28T00:13:05.643Z,1013.79
2018-11-28T00:14:05.547Z,1013.75
2018-11-28T00:15:05.551Z,1013.75
2018-11-28T00:16:05.486Z,1013.77
2018-11-28T00:17:05.565Z,1013.76
2018-11-28T00:18:05.453Z,1013.74
2018-11-28T00:19:07.079Z,1013.69
2018-11-28T00:20:07.054Z,1013.69
2018-11-28T00:21:05.387Z,1013.68
2018-11-28T00:22:05.304Z,1013.64
2018-11-28T00:23:05.299Z,1013.60
2018-11-28T00:24:05.242Z,1013.65
2018-11-28T00:25:05.323Z,1013.62
2018-11-28T00:26:05.183Z,1013.63
2018-11-28T00:27:05.225Z,1013.62
2018-11-28T00:28:05.135Z,1013.62
2018-11-28T00:29:05.135Z,1013.62
2018-11-28T00:30:05.058Z,1013.64
2018-11-28T00:31:05.142Z,1013.66
2018-11-28T00:32:04.999Z,1013.68
2018-11-28T00:33:05.055Z,1013.67
2018-11-28T00:34:04.940Z,1013.62
2018-11-28T00:35:04.966Z,1013.61
2018-11-28T00:36:04.904Z,1013.59
2018-11-28T00:37:04.884Z,1013.62
2018-11-28T00:38:04.822Z,1013.60
2018-11-28T00:39:04.890Z,1013.64
2018-11-28T00:40:04.792Z,1013.59
2018-11-28T00:41:04.795Z,1013.60
2018-11-28T00:42:04.707Z,1013.61
2018-11-28T00:43:04.710Z,1013.62
2018-11-28T00:44:04.643Z,1013.58
2018-11-28T00:45:04.725Z,1013.54
2018-11-28T00:46:04.585Z,1013.56
2018-11-28T00:47:04.637Z,1013.59
2018-11-28T00:48:04.525Z,1013.63
2018-11-28T00:49:04.547Z,1013.60
2018-11-28T00:50:04.467Z,1013.61
2018-11-28T00:51:04.454Z,1013.67
2018-11-28T00:52:04.407Z,1013.62
2018-11-28T00:53:04.493Z,1013.62
2018-11-28T00:54:04.346Z,1013.60
2018-11-28T00:55:04.385Z,1013.63
2018-11-28T00:56:04.280Z,1013.56
2018-11-28T00:57:04.291Z,1013.60
2018-11-28T00:58:04.237Z,1013.60
2018-11-28T00:59:04.300Z,1013.54
2018-11-28T01:00:04.168Z,1013.49
2018-11-28T01:01:04.210Z,1013.50
2018-11-28T01:02:04.124Z,1013.51
2018-11-28T01:03:04.121Z,1013.53
2018-11-28T01:04:04.042Z,1013.50
2018-11-28T01:05:04.032Z,1013.53
2018-11-28T01:06:03.982Z,1013.53
2018-11-28T01:07:04.041Z,1013.53
2018-11-28T01:08:03.930Z,1013.50
2018-11-28T01:09:03.956Z,1013.51
2018-11-28T01:10:03.867Z,1013.58
2018-11-28T01:11:03.863Z,1013.53
2018-11-28T01:12:03.807Z,1013.55
2018-11-28T01:13:03.876Z,1013.54
2018-11-28T01:14:03.742Z,1013.57
2018-11-28T01:15:03.790Z,1013.53
2018-11-28T01:16:03.681Z,1013.56
2018-11-28T01:17:03.702Z,1013.55
2018-11-28T01:18:03.622Z,1013.54
2018-11-28T01:19:03.608Z,1013.53
2018-11-28T01:20:03.560Z,1013.53
2018-11-28T01:21:03.624Z,1013.57
2018-11-28T01:22:03.496Z,1013.53
2018-11-28T01:23:03.530Z,1013.57
2018-11-28T01:24:03.433Z,1013.51
2018-11-28T01:25:03.441Z,1013.53
2018-11-28T01:26:03.370Z,1013.49
2018-11-28T01:27:03.480Z,1013.53
2018-11-28T01:28:03.310Z,1013.52
2018-11-28T01:29:03.368Z,1013.57
2018-11-28T01:30:03.249Z,1013.57
2018-11-28T01:31:04.298Z,1013.55
2018-11-28T01:32:03.189Z,1013.56
2018-11-28T01:33:03.185Z,1013.51
2018-11-28T01:34:03.131Z,1013.51
2018-11-28T01:35:03.204Z,1013.54
2018-11-28T01:36:03.074Z,1013.50
2018-11-28T01:37:03.108Z,1013.52
2018-11-28T01:38:03.017Z,1013.54
2018-11-28T01:39:03.022Z,1013.49
2018-11-28T01:40:02.947Z,1013.52
2018-11-28T01:41:02.946Z,1013.50
2018-11-28T01:42:02.907Z,1013.46
2018-11-28T01:43:02.944Z,1013.46
2018-11-28T01:44:02.830Z,1013.39
2018-11-28T01:45:02.856Z,1013.38
2018-11-28T01:46:02.781Z,1013.35
2018-11-28T01:47:02.765Z,1013.36
2018-11-28T01:48:02.711Z,1013.38
2018-11-28T01:49:02.777Z,1013.36
2018-11-28T01:50:02.651Z,1013.40
2018-11-28T01:51:02.686Z,1013.40
2018-11-28T01:52:02.592Z,1013.34
2018-11-28T01:53:02.602Z,1013.34
2018-11-28T01:54:02.539Z,1013.36
2018-11-28T01:55:02.612Z,1013.36
2018-11-28T01:56:02.475Z,1013.34
2018-11-28T01:57:02.526Z,1013.36
2018-11-28T01:58:02.425Z,1013.35
2018-11-28T01:59:02.438Z,1013.34
2018-11-28T02:00:02.349Z,1013.35
2018-11-28T02:01:02.349Z,1013.37
2018-11-28T02:02:02.289Z,1013.34
2018-11-28T02:03:02.352Z,1013.38
2018-11-28T02:04:02.226Z,1013.36
2018-11-28T02:05:02.202Z,1013.40
2018-11-28T02:06:02.169Z,1013.42
2018-11-28T02:07:02.179Z,1013.47
2018-11-28T02:08:02.108Z,1013.41
2018-11-28T02:09:04.141Z,1013.41
2018-11-28T02:10:02.041Z,1013.49
2018-11-28T02:11:02.110Z,1013.49
2018-11-28T02:12:01.988Z,1013.42
2018-11-28T02:13:02.012Z,1013.43
2018-11-28T02:14:01.939Z,1013.48
2018-11-28T02:15:08.740Z,1013.38
2018-11-28T02:16:01.874Z,1013.42
2018-11-28T02:17:01.941Z,1013.44
2018-11-28T02:18:01.809Z,1013.41
2018-11-28T02:19:01.855Z,1013.44
2018-11-28T02:20:01.750Z,1013.43
2018-11-28T02:21:01.853Z,1013.39
2018-11-28T02:22:01.700Z,1013.42
2018-11-28T02:23:01.767Z,1013.43
2018-11-28T02:24:01.628Z,1013.42
2018-11-28T02:25:01.679Z,1013.44
2018-11-28T02:26:01.569Z,1013.41
2018-11-28T02:27:01.590Z,1013.39
2018-11-28T02:28:01.510Z,1013.37
2018-11-28T02:29:01.498Z,1013.38
2018-11-28T02:30:01.453Z,1013.35
2018-11-28T02:31:01.513Z,1013.38
2018-11-28T02:32:01.390Z,1013.39
2018-11-28T02:33:01.423Z,1013.40
2018-11-28T02:34:01.331Z,1013.44
2018-11-28T02:35:01.336Z,1013.40
2018-11-28T02:36:01.278Z,1013.39
2018-11-28T02:37:01.351Z,1013.43
2018-11-28T02:38:01.232Z,1013.38
2018-11-28T02:39:01.264Z,1013.38
2018-11-28T02:40:01.155Z,1013.34
2018-11-28T02:41:01.166Z,1013.31
2018-11-28T02:42:01.093Z,1013.25
2018-11-28T02:43:01.081Z,1013.25
2018-11-28T02:44:01.024Z,1013.24
2018-11-28T02:45:01.091Z,1013.27
2018-11-28T02:46:00.965Z,1013.25
2018-11-28T02:47:00.999Z,1013.28
2018-11-28T02:48:00.904Z,1013.28
2018-11-28T02:49:00.915Z,1013.31
2018-11-28T02:50:00.854Z,1013.28
2018-11-28T02:51:00.926Z,1013.22
2018-11-28T02:52:00.791Z,1013.27
2018-11-28T02:53:00.832Z,1013.23
2018-11-28T02:54:00.735Z,1013.20
2018-11-28T02:55:00.751Z,1013.22
2018-11-28T02:56:00.665Z,1013.20
2018-11-28T02:57:00.654Z,1013.18
2018-11-28T02:58:00.627Z,1013.21
2018-11-28T02:59:00.669Z,1013.18
2018-11-28T03:00:00.535Z,1013.20
2018-11-28T03:01:00.581Z,1013.22
2018-11-28T03:02:00.480Z,1013.22
2018-11-28T03:03:00.484Z,1013.20
2018-11-28T03:04:00.424Z,1013.23
2018-11-28T03:05:00.495Z,1013.23
2018-11-28T03:06:00.372Z,1013.26
2018-11-28T03:07:00.413Z,1013.22
2018-11-28T03:08:00.305Z,1013.29
2018-11-28T03:09:00.316Z,1013.30
2018-11-28T03:10:00.249Z,1013.24
2018-11-28T03:11:01.254Z,1013.26
2018-11-28T03:12:00.183Z,1013.30
2018-11-28T03:13:01.164Z,1013.29
2018-11-28T03:14:00.128Z,1013.31
2018-11-28T03:15:00.154Z,1013.29
2018-11-28T03:16:00.060Z,1013.34
2018-11-28T03:17:00.067Z,1013.29
2018-11-28T03:18:00.009Z,1013.30
2018-11-28T03:19:00.084Z,1013.28
2018-11-28T03:19:59.944Z,1013.31
2018-11-28T03:20:59.987Z,1013.28
2018-11-28T03:21:59.878Z,1013.36
2018-11-28T03:22:59.897Z,1013.28
2018-11-28T03:23:59.814Z,1013.29
2018-11-28T03:24:59.812Z,1013.33
2018-11-28T03:25:59.756Z,1013.29
2018-11-28T03:26:59.821Z,1013.25
2018-11-28T03:27:59.703Z,1013.31
2018-11-28T03:29:00.764Z,1013.30
2018-11-28T03:29:59.630Z,1013.31
2018-11-28T03:30:59.646Z,1013.25
2018-11-28T03:31:59.575Z,1013.24
2018-11-28T03:32:59.555Z,1013.19
2018-11-28T03:33:59.505Z,1013.19
2018-11-28T03:34:59.564Z,1013.15
2018-11-28T03:35:59.462Z,1013.14
2018-11-28T03:36:59.478Z,1013.11
2018-11-28T03:37:59.381Z,1013.13
2018-11-28T03:38:59.387Z,1013.07
2018-11-28T03:39:59.327Z,1013.08
2018-11-28T03:40:59.394Z,1013.08
2018-11-28T03:41:59.270Z,1013.09
2018-11-28T03:42:59.311Z,1013.08
2018-11-28T03:43:59.205Z,1013.08
2018-11-28T03:44:59.225Z,1013.08
2018-11-28T03:45:59.138Z,1013.14
2018-11-28T03:46:59.134Z,1013.09
2018-11-28T03:47:59.072Z,1013.07
2018-11-28T03:48:59.148Z,1013.06
2018-11-28T03:50:00.600Z,1013.03
2018-11-28T03:51:00.534Z,1013.02
2018-11-28T03:51:58.962Z,1013.08
2018-11-28T03:53:00.508Z,1013.02
2018-11-28T03:54:00.600Z,1013.02
2018-11-28T03:54:59.834Z,1013.00
2018-11-28T03:55:58.833Z,1013.00
2018-11-28T03:56:58.802Z,1013.03
2018-11-28T03:57:58.845Z,1013.03
2018-11-28T03:58:58.740Z,1013.04
2018-11-28T03:59:58.708Z,1012.98
2018-11-28T04:00:58.743Z,1013.03
2018-11-28T04:02:02.285Z,1012.98
2018-11-28T04:03:07.265Z,1013.02
2018-11-28T04:04:01.006Z,1012.95
2018-11-28T04:05:06.918Z,1013.00
2018-11-28T04:06:00.015Z,1012.95
2018-11-28T04:07:06.542Z,1012.99
2018-11-28T04:08:00.409Z,1012.97
2018-11-28T04:08:59.045Z,1013.00
2018-11-28T04:09:59.896Z,1012.97
2018-11-28T04:10:59.922Z,1013.01
2018-11-28T04:11:59.611Z,1013.01
2018-11-28T04:12:59.108Z,1013.03
2018-11-28T04:13:58.710Z,1012.99
2018-11-28T04:15:01.313Z,1012.98
2018-11-28T04:15:58.661Z,1013.06
2018-11-28T04:16:58.289Z,1013.09
2018-11-28T04:17:58.392Z,1013.09
2018-11-28T04:18:59.233Z,1013.14
2018-11-28T04:19:58.343Z,1013.10
2018-11-28T04:20:58.161Z,1013.10
2018-11-28T04:21:58.487Z,1013.11
2018-11-28T04:22:59.284Z,1013.11
2018-11-28T04:30:22.153Z,1013.13
2018-11-28T04:43:57.494Z,1013.12
2018-11-28T04:44:49.382Z,1013.12
2018-11-28T04:45:49.391Z,1013.12
2018-11-28T04:46:49.578Z,1013.13
2018-11-28T04:47:49.492Z,1013.12
2018-11-28T04:48:49.324Z,1013.16
2018-11-28T04:49:51.383Z,1013.11
2018-11-28T04:50:49.208Z,1013.11
2018-11-28T04:51:50.199Z,1013.10
2018-11-28T04:52:49.325Z,1013.11
2018-11-28T04:53:49.217Z,1013.12
2018-11-28T04:54:49.053Z,1013.10
2018-11-28T05:00:31.180Z,1012.99
2018-11-28T05:01:31.076Z,1012.99
2018-11-28T05:02:31.328Z,1012.97
2018-11-28T05:03:32.029Z,1012.96
2018-11-28T05:08:03.790Z,1012.84
2018-11-28T05:09:03.746Z,1012.85
2018-11-28T05:10:03.750Z,1012.86
2018-11-28T05:11:03.624Z,1012.88
2018-11-28T05:12:03.996Z,1012.88
2018-11-28T05:13:03.556Z,1012.87
2018-11-28T05:14:04.676Z,1012.89
2018-11-28T05:15:04.125Z,1012.89
2018-11-28T05:16:03.482Z,1012.92
2018-11-28T05:17:03.484Z,1012.94
2018-11-28T05:18:03.553Z,1012.89
2018-11-28T05:19:03.417Z,1012.88
2018-11-28T05:20:03.366Z,1012.83
2018-11-28T05:21:03.296Z,1012.84
2018-11-28T05:22:03.357Z,1012.86
2018-11-28T05:23:03.324Z,1012.88
2018-11-28T05:25:55.525Z,1012.75
2018-11-28T05:26:56.590Z,1012.77
2018-11-28T05:28:58.853Z,1012.80
2018-11-28T05:29:58.459Z,1012.76
2018-11-28T05:30:59.203Z,1012.82
2018-11-28T05:31:59.605Z,1012.85
2018-11-28T05:32:58.811Z,1012.88
2018-11-28T05:33:58.891Z,1012.89
2018-11-28T05:34:59.459Z,1012.87
2018-11-28T05:35:58.945Z,1012.95
2018-11-28T05:36:58.205Z,1012.93
2018-11-28T05:37:58.244Z,1012.94
2018-11-28T05:39:00.366Z,1012.90
2018-11-28T05:39:58.494Z,1012.87
2018-11-28T05:40:58.550Z,1012.87
2018-11-28T05:41:58.211Z,1012.80
2018-11-28T05:42:58.274Z,1012.82
2018-11-28T05:43:58.252Z,1012.84
2018-11-28T05:44:59.117Z,1012.81
2018-11-28T05:45:59.677Z,1012.85
2018-11-28T05:46:59.590Z,1012.87
2018-11-28T05:47:57.946Z,1012.88
2018-11-28T05:50:10.990Z,1012.89
2018-11-28T05:51:12.129Z,1012.92
2018-11-28T05:52:12.207Z,1012.89
2018-11-28T05:53:10.823Z,1012.89
2018-11-28T05:54:10.820Z,1012.91
2018-11-28T05:55:11.207Z,1012.89
2018-11-28T05:56:10.610Z,1012.87
2018-11-28T05:57:10.661Z,1012.82
2018-11-28T05:58:10.610Z,1012.85
2018-11-28T05:59:10.603Z,1012.92
2018-11-28T06:00:10.628Z,1012.92
2018-11-28T06:01:11.716Z,1012.89
2018-11-28T06:02:10.435Z,1012.92
2018-11-28T06:03:10.394Z,1012.89
2018-11-28T06:04:10.429Z,1012.86
2018-11-28T06:05:12.385Z,1012.89
2018-11-28T06:06:10.259Z,1012.89
2018-11-28T06:07:10.450Z,1012.87
2018-11-28T06:08:10.378Z,1012.91
2018-11-28T06:09:11.130Z,1012.84
2018-11-28T06:10:10.183Z,1012.86
2018-11-28T06:11:10.156Z,1012.85
2018-11-28T06:12:10.321Z,1012.85
2018-11-28T06:13:11.817Z,1012.85
2018-11-28T06:14:11.986Z,1012.81
2018-11-28T06:15:11.145Z,1012.75
2018-11-28T06:16:10.474Z,1012.75
2018-11-28T06:17:10.368Z,1012.72
2018-11-28T06:19:03.581Z,1012.73
2018-11-28T06:20:03.581Z,1012.76
2018-11-28T06:21:03.693Z,1012.77
2018-11-28T06:22:03.495Z,1012.77
2018-11-28T06:23:03.618Z,1012.79
2018-11-28T06:24:03.484Z,1012.74
2018-11-28T06:25:03.322Z,1012.76
2018-11-28T06:26:03.437Z,1012.79
2018-11-28T06:27:04.701Z,1012.80
2018-11-28T06:28:03.280Z,1012.74
2018-11-28T06:29:10.307Z,1012.78
2018-11-28T06:30:03.286Z,1012.76
2018-11-28T06:31:03.394Z,1012.76
2018-11-28T06:32:03.020Z,1012.77
2018-11-28T06:33:04.221Z,1012.79
2018-11-28T06:34:02.968Z,1012.75
2018-11-28T06:35:49.462Z,1012.79
2018-11-28T06:36:49.577Z,1012.84
2018-11-28T06:37:49.506Z,1012.82
2018-11-28T06:38:49.303Z,1012.84
2018-11-28T06:39:49.236Z,1012.90
2018-11-28T06:40:49.205Z,1012.85
2018-11-28T06:41:49.283Z,1012.85
2018-11-28T06:42:49.158Z,1012.85
2018-11-28T06:43:49.321Z,1012.90
2018-11-28T06:45:40.639Z,1012.89
2018-11-28T06:46:40.749Z,1012.87
2018-11-28T06:47:40.641Z,1012.94
2018-11-28T06:48:40.826Z,1012.97
2018-11-28T06:49:40.532Z,1012.99
2018-11-28T06:50:40.508Z,1012.99
2018-11-28T06:51:40.549Z,1013.00
2018-11-28T06:52:40.534Z,1012.99
2018-11-28T06:53:40.489Z,1013.01
2018-11-28T06:54:40.601Z,1012.99
2018-11-28T06:55:40.524Z,1013.03
2018-11-28T06:56:40.307Z,1013.05
2018-11-28T06:57:40.243Z,1013.07
2018-11-28T06:58:40.255Z,1013.05
2018-11-28T06:59:40.187Z,1013.09
2018-11-28T07:00:40.319Z,1013.05
2018-11-28T07:01:40.122Z,1013.09
2018-11-28T07:02:40.179Z,1013.10
2018-11-28T07:03:40.052Z,1013.15
2018-11-28T07:04:40.094Z,1013.13
2018-11-28T07:05:39.997Z,1013.16
2018-11-28T07:06:39.963Z,1013.13
2018-11-28T07:07:39.934Z,1013.14
2018-11-28T07:08:39.917Z,1013.16
2018-11-28T07:09:39.868Z,1013.17
2018-11-28T07:10:39.843Z,1013.20
2018-11-28T07:11:39.804Z,1013.21
2018-11-28T07:12:39.775Z,1013.22
2018-11-28T07:13:39.816Z,1013.25
2018-11-28T07:14:39.701Z,1013.26
2018-11-28T07:15:39.704Z,1013.24
2018-11-28T07:16:39.647Z,1013.27
2018-11-28T07:17:39.712Z,1013.29
2018-11-28T07:18:39.587Z,1013.30
2018-11-28T07:19:39.624Z,1013.26
2018-11-28T07:20:39.521Z,1013.29
2018-11-28T07:21:39.539Z,1013.28
2018-11-28T07:22:39.451Z,1013.27
2018-11-28T07:23:39.451Z,1013.29
2018-11-28T07:24:39.392Z,1013.35
2018-11-28T07:25:39.363Z,1013.35
2018-11-28T07:26:41.414Z,1013.35
2018-11-28T07:27:44.837Z,1013.39
2018-11-28T07:28:39.405Z,1013.42
2018-11-28T07:29:39.231Z,1013.41
2018-11-28T07:30:39.240Z,1013.42
2018-11-28T07:31:39.196Z,1013.41
2018-11-28T07:32:39.262Z,1013.40
2018-11-28T07:33:39.111Z,1013.44
2018-11-28T07:34:39.077Z,1013.40
2018-11-28T07:35:39.048Z,1013.39
2018-11-28T07:36:39.025Z,1013.37
2018-11-28T07:37:39.082Z,1013.35
2018-11-28T07:38:38.952Z,1013.38
2018-11-28T07:39:38.997Z,1013.33
2018-11-28T07:40:38.902Z,1013.36
2018-11-28T07:41:38.908Z,1013.36
2018-11-28T07:42:38.823Z,1013.41
2018-11-28T07:43:38.818Z,1013.33
2018-11-28T07:44:38.756Z,1013.38
2018-11-28T07:45:38.829Z,1013.38
2018-11-28T07:46:38.699Z,1013.36
2018-11-28T07:47:38.743Z,1013.39
2018-11-28T07:48:38.665Z,1013.37
2018-11-28T07:49:38.656Z,1013.36
2018-11-28T07:50:38.571Z,1013.39
2018-11-28T07:51:38.632Z,1013.37
2018-11-28T07:52:38.505Z,1013.41
2018-11-28T07:53:38.580Z,1013.41
2018-11-28T07:54:38.465Z,1013.43
2018-11-28T07:55:38.481Z,1013.47
2018-11-28T07:56:38.377Z,1013.48
2018-11-28T07:57:38.355Z,1013.48
2018-11-28T07:58:38.318Z,1013.49
2018-11-28T07:59:38.284Z,1013.49
2018-11-28T08:00:38.249Z,1013.51
2018-11-28T08:01:38.225Z,1013.45
2018-11-28T08:02:38.216Z,1013.46
2018-11-28T08:03:38.159Z,1013.46
2018-11-28T08:04:38.127Z,1013.45
2018-11-28T08:05:38.112Z,1013.44
2018-11-28T08:06:38.067Z,1013.45
2018-11-28T08:07:38.045Z,1013.43
2018-11-28T08:08:38.100Z,1013.40
2018-11-28T08:09:37.965Z,1013.47
2018-11-28T08:10:37.992Z,1013.48
2018-11-28T08:11:38.205Z,1013.49
2018-11-28T08:12:37.897Z,1013.52
2018-11-28T08:13:37.856Z,1013.49
2018-11-28T08:14:37.908Z,1013.49
2018-11-28T08:15:37.784Z,1013.50
2018-11-28T08:16:37.822Z,1013.50
2018-11-28T08:17:37.720Z,1013.50
2018-11-28T08:18:37.684Z,1013.48
2018-11-28T08:19:37.786Z,1013.47
2018-11-28T08:20:37.661Z,1013.46
2018-11-28T08:21:37.622Z,1013.42
2018-11-28T08:22:37.562Z,1013.43
2018-11-28T08:23:37.639Z,1013.38
2018-11-28T08:24:37.560Z,1013.39
2018-11-28T08:25:37.542Z,1013.43
2018-11-28T08:26:37.432Z,1013.52
2018-11-28T08:27:37.403Z,1013.53
2018-11-28T08:28:37.368Z,1013.55
2018-11-28T08:29:37.407Z,1013.49
2018-11-28T08:30:37.315Z,1013.49
2018-11-28T08:31:37.320Z,1013.44
2018-11-28T08:32:37.245Z,1013.40
2018-11-28T08:33:37.301Z,1013.38
2018-11-28T08:34:37.186Z,1013.36
2018-11-28T08:35:37.246Z,1013.32
2018-11-28T08:36:37.120Z,1013.29
2018-11-28T08:37:37.157Z,1013.27
2018-11-28T08:38:37.046Z,1013.24
2018-11-28T08:39:37.067Z,1013.25
2018-11-28T08:40:37.060Z,1013.27
2018-11-28T08:41:37.079Z,1013.30
2018-11-28T08:42:36.916Z,1013.30
2018-11-28T08:43:36.992Z,1013.29
2018-11-28T08:44:36.862Z,1013.28
2018-11-28T08:45:36.920Z,1013.38
2018-11-28T08:46:36.793Z,1013.35
2018-11-28T08:47:36.829Z,1013.26
2018-11-28T08:48:36.726Z,1013.29
2018-11-28T08:49:36.754Z,1013.27
2018-11-28T08:50:36.663Z,1013.25
2018-11-28T08:51:37.392Z,1013.27
2018-11-28T08:52:36.598Z,1013.20
2018-11-28T08:53:36.568Z,1013.21
2018-11-28T08:54:37.591Z,1013.19
2018-11-28T08:55:36.505Z,1013.17
2018-11-28T08:56:36.592Z,1013.22
2018-11-28T08:57:36.437Z,1013.17
2018-11-28T08:58:36.500Z,1013.24
2018-11-28T08:59:36.372Z,1013.24
2018-11-28T09:00:36.407Z,1013.29
2018-11-28T09:01:36.318Z,1013.28
2018-11-28T09:02:36.321Z,1013.31
2018-11-28T09:03:36.248Z,1013.30
2018-11-28T09:04:36.330Z,1013.28
2018-11-28T09:05:36.190Z,1013.29
2018-11-28T09:06:37.266Z,1013.28
2018-11-28T09:07:36.118Z,1013.22
2018-11-28T09:08:36.170Z,1013.24
2018-11-28T09:09:36.061Z,1013.22
2018-11-28T09:10:37.088Z,1013.20
2018-11-28T09:11:35.990Z,1013.19
2018-11-28T09:12:36.078Z,1013.19
2018-11-28T09:13:35.934Z,1013.15
2018-11-28T09:14:35.989Z,1013.20
2018-11-28T09:15:35.903Z,1013.15
2018-11-28T09:16:36.052Z,1013.18
2018-11-28T09:17:35.806Z,1013.16
2018-11-28T09:18:35.819Z,1013.25
2018-11-28T09:19:35.741Z,1013.20
2018-11-28T09:20:35.826Z,1013.22
2018-11-28T09:21:35.673Z,1013.20
2018-11-28T09:22:36.760Z,1013.17
2018-11-28T09:23:35.611Z,1013.16
2018-11-28T09:24:35.650Z,1013.18
2018-11-28T09:25:35.548Z,1013.13
2018-11-28T09:26:35.560Z,1013.18
2018-11-28T09:27:35.493Z,1013.19
2018-11-28T09:28:35.470Z,1013.22
2018-11-28T09:29:35.426Z,1013.20
2018-11-28T09:30:36.507Z,1013.22
2018-11-28T09:31:35.381Z,1013.21
2018-11-28T09:32:35.394Z,1013.23
2018-11-28T09:33:35.298Z,1013.29
2018-11-28T09:34:35.291Z,1013.27
2018-11-28T09:35:35.240Z,1013.33
2018-11-28T09:36:35.190Z,1013.35
2018-11-28T09:37:35.198Z,1013.33
2018-11-28T09:38:35.137Z,1013.32
2018-11-28T09:39:36.869Z,1013.31
2018-11-28T09:40:35.116Z,1013.33
2018-11-28T09:41:35.063Z,1013.32
2018-11-28T09:42:35.026Z,1013.32
2018-11-28T09:43:34.982Z,1013.35
2018-11-28T09:44:35.042Z,1013.32
2018-11-28T09:45:34.904Z,1013.30
2018-11-28T09:46:34.946Z,1013.27
2018-11-28T09:47:34.849Z,1013.27
2018-11-28T09:48:34.878Z,1013.29
2018-11-28T09:49:34.770Z,1013.24
2018-11-28T09:50:34.770Z,1013.27
2018-11-28T09:51:34.744Z,1013.21
2018-11-28T09:52:34.716Z,1013.22
2018-11-28T09:53:34.689Z,1013.20
2018-11-28T09:54:34.630Z,1013.23
2018-11-28T09:55:34.599Z,1013.20
2018-11-28T09:56:34.548Z,1013.23
2018-11-28T09:57:34.616Z,1013.23
2018-11-28T09:58:34.551Z,1013.23
2018-11-28T09:59:34.450Z,1013.20
2018-11-28T10:00:34.424Z,1013.18
2018-11-28T10:01:34.534Z,1013.19
2018-11-28T10:02:34.357Z,1013.17
2018-11-28T10:03:34.347Z,1013.15
2018-11-28T10:04:34.289Z,1013.15
2018-11-28T10:05:34.369Z,1013.13
2018-11-28T10:06:34.225Z,1013.14
2018-11-28T10:07:34.280Z,1013.10
2018-11-28T10:08:34.168Z,1013.10
2018-11-28T10:09:34.185Z,1013.12
2018-11-28T10:10:34.149Z,1013.12
2018-11-28T10:11:34.101Z,1013.10
2018-11-28T10:12:34.053Z,1013.11
2018-11-28T10:13:34.109Z,1013.13
2018-11-28T10:14:33.978Z,1013.10
2018-11-28T10:15:35.717Z,1013.07
2018-11-28T10:16:33.907Z,1013.08
2018-11-28T10:17:33.969Z,1013.11
2018-11-28T10:18:33.839Z,1013.11
2018-11-28T10:19:33.848Z,1013.05
2018-11-28T10:20:33.773Z,1013.08
2018-11-28T10:21:33.757Z,1013.03
2018-11-28T10:22:33.708Z,1013.06
2018-11-28T10:23:33.782Z,1013.03
2018-11-28T10:24:34.407Z,1012.96
2018-11-28T10:25:33.618Z,1012.91
2018-11-28T10:26:33.639Z,1012.95
2018-11-28T10:27:33.591Z,1012.93
2018-11-28T10:28:33.518Z,1012.91
2018-11-28T10:29:33.479Z,1012.92
2018-11-28T10:30:33.455Z,1012.94
2018-11-28T10:31:33.417Z,1012.91
2018-11-28T10:32:33.385Z,1012.91
2018-11-28T10:33:33.357Z,1012.89
2018-11-28T10:34:33.318Z,1012.91
2018-11-28T10:35:33.292Z,1012.90
2018-11-28T10:36:33.256Z,1012.91
2018-11-28T10:37:33.230Z,1012.91
2018-11-28T10:38:33.197Z,1012.85
2018-11-28T10:39:33.159Z,1012.85
2018-11-28T10:40:33.125Z,1012.90
2018-11-28T10:41:33.097Z,1012.89
2018-11-28T10:42:33.073Z,1012.91
2018-11-28T10:43:33.035Z,1012.92
2018-11-28T10:44:33.002Z,1012.87
2018-11-28T10:45:32.975Z,1012.88
2018-11-28T10:46:32.934Z,1012.91
2018-11-28T10:47:32.901Z,1012.87
2018-11-28T10:48:32.873Z,1012.88
2018-11-28T10:49:32.837Z,1012.84
2018-11-28T10:50:32.816Z,1012.81
2018-11-28T10:51:32.774Z,1012.82
2018-11-28T10:52:32.751Z,1012.81
2018-11-28T10:53:32.710Z,1012.72
2018-11-28T10:54:32.690Z,1012.74
2018-11-28T10:55:32.645Z,1012.72
2018-11-28T10:56:32.613Z,1012.66
2018-11-28T10:57:32.586Z,1012.62
2018-11-28T10:58:32.544Z,1012.62
2018-11-28T10:59:32.519Z,1012.56
2018-11-28T11:00:32.488Z,1012.57
2018-11-28T11:01:32.458Z,1012.61
2018-11-28T11:02:32.420Z,1012.61
2018-11-28T11:03:32.405Z,1012.60
2018-11-28T11:04:32.358Z,1012.61
2018-11-28T11:05:32.327Z,1012.63
2018-11-28T11:06:32.293Z,1012.63
2018-11-28T11:07:32.263Z,1012.62
2018-11-28T11:08:32.231Z,1012.60
2018-11-28T11:09:32.328Z,1012.54
2018-11-28T11:10:32.162Z,1012.55
2018-11-28T11:11:32.134Z,1012.54
2018-11-28T11:12:32.098Z,1012.53
2018-11-28T11:13:32.070Z,1012.53
2018-11-28T11:14:32.039Z,1012.52
2018-11-28T11:15:32.001Z,1012.51
2018-11-28T11:16:32.076Z,1012.53
2018-11-28T11:17:31.938Z,1012.50
2018-11-28T11:18:31.987Z,1012.48
2018-11-28T11:19:31.877Z,1012.52
2018-11-28T11:20:31.842Z,1012.50
2018-11-28T11:21:31.813Z,1012.55
2018-11-28T11:22:31.780Z,1012.50
2018-11-28T11:23:31.744Z,1012.51
2018-11-28T11:24:31.715Z,1012.53
2018-11-28T11:25:31.712Z,1012.45
2018-11-28T11:26:31.651Z,1012.46
2018-11-28T11:27:31.613Z,1012.45
2018-11-28T11:28:31.581Z,1012.48
2018-11-28T11:29:31.549Z,1012.47
2018-11-28T11:30:31.543Z,1012.52
2018-11-28T11:31:31.681Z,1012.51
2018-11-28T11:32:31.458Z,1012.46
2018-11-28T11:33:31.463Z,1012.45
2018-11-28T11:34:31.412Z,1012.45
2018-11-28T11:35:31.390Z,1012.43
2018-11-28T11:36:31.331Z,1012.47
2018-11-28T11:37:31.389Z,1012.42
2018-11-28T11:38:31.270Z,1012.38
2018-11-28T11:39:31.243Z,1012.38
2018-11-28T11:40:31.306Z,1012.35
2018-11-28T11:41:31.194Z,1012.34
2018-11-28T11:42:31.147Z,1012.32
2018-11-28T11:43:31.108Z,1012.33
2018-11-28T11:44:31.097Z,1012.36
2018-11-28T11:45:31.047Z,1012.35
2018-11-28T11:46:31.108Z,1012.38
2018-11-28T11:47:30.977Z,1012.33
2018-11-28T11:48:30.957Z,1012.30
2018-11-28T11:49:30.924Z,1012.29
2018-11-28T11:50:30.891Z,1012.24
2018-11-28T11:51:30.860Z,1012.28
2018-11-28T11:52:30.998Z,1012.26
2018-11-28T11:53:30.794Z,1012.26
2018-11-28T11:54:31.344Z,1012.25
2018-11-28T11:55:30.731Z,1012.17
2018-11-28T11:56:30.699Z,1012.18
2018-11-28T11:57:30.673Z,1012.15
2018-11-28T11:58:30.639Z,1012.16
2018-11-28T11:59:30.605Z,1012.15
2018-11-28T12:00:30.574Z,1012.13
2018-11-28T12:01:30.546Z,1012.13
2018-11-28T12:02:30.610Z,1012.10
2018-11-28T12:03:30.483Z,1012.11
2018-11-28T12:04:30.448Z,1012.10
2018-11-28T12:05:30.429Z,1012.05
2018-11-28T12:06:30.385Z,1012.02
2018-11-28T12:07:30.435Z,1012.09
2018-11-28T12:08:30.325Z,1012.07
2018-11-28T12:09:30.373Z,1012.02
2018-11-28T12:10:30.272Z,1012.03
2018-11-28T12:11:30.363Z,1012.05
2018-11-28T12:12:30.191Z,1012.02
2018-11-28T12:13:30.273Z,1012.06
2018-11-28T12:14:30.133Z,1012.03
2018-11-28T12:15:30.105Z,1012.04
2018-11-28T12:16:30.075Z,1012.05
2018-11-28T12:17:30.117Z,1012.06
2018-11-28T12:18:30.007Z,1012.03
2018-11-28T12:19:29.971Z,1012.06
2018-11-28T12:20:30.021Z,1012.03
2018-11-28T12:21:29.904Z,1012.05
2018-11-28T12:22:29.935Z,1012.05
2018-11-28T12:23:29.851Z,1012.02
2018-11-28T12:24:29.945Z,1012.04
2018-11-28T12:25:29.776Z,1012.05
2018-11-28T12:26:29.875Z,1011.97
2018-11-28T12:27:29.712Z,1011.96
2018-11-28T12:28:29.768Z,1011.90
2018-11-28T12:29:29.666Z,1011.93
2018-11-28T12:30:29.679Z,1011.97
2018-11-28T12:31:29.590Z,1011.92
2018-11-28T12:32:29.688Z,1011.96
2018-11-28T12:33:29.515Z,1011.93
2018-11-28T12:34:29.608Z,1011.93
2018-11-28T12:35:29.472Z,1011.92
2018-11-28T12:36:29.507Z,1011.96
2018-11-28T12:37:29.392Z,1011.88
2018-11-28T12:38:29.418Z,1011.92